Time;durP1;ratioP1;P1;durP2;ratioP2;P2;SDS_P1;SDS_P2;PMS_P1;PMS_P2;Temp;Humidity;BMP_temperature;BMP_pressure;BME280_temperature;BME280_humidity;BME280_pressure;Samples;Min_cycle;Max_cycle;Signal;HPM_P1;HPM_P2
2021/03/22 00:01:53;;;;;;;13.98;4.93;;;6.20;99.90;;;;;;5053726;28;20210;-80
2021/03/22 00:04:21;;;;;;;18.88;5.32;;;6.20;99.90;;;;;;5053305;28;20617;-80
2021/03/22 00:06:47;;;;;;;20.70;5.15;;;6.20;99.90;;;;;;5053466;28;20195;-80
2021/03/22 00:09:16;;;;;;;22.67;5.03;;;6.10;99.90;;;;;;5053285;28;20242;-80
2021/03/22 00:11:42;;;;;;;15.88;4.90;;;6.10;99.90;;;;;;5036118;28;20208;-80
2021/03/22 00:14:18;;;;;;;15.27;5.35;;;6.10;99.90;;;;;;5053006;28;20676;-80
2021/03/22 00:16:51;;;;;;;13.13;5.03;;;6.20;99.90;;;;;;5053629;28;20176;-80
2021/03/22 00:19:17;;;;;;;13.30;4.88;;;6.20;99.90;;;;;;5053243;28;20180;-79
2021/03/22 00:21:48;;;;;;;18.88;5.03;;;6.20;99.90;;;;;;5048697;28;20587;-80
2021/03/22 00:24:16;;;;;;;19.70;5.82;;;6.30;99.90;;;;;;5043550;28;20250;-80
2021/03/22 00:26:44;;;;;;;12.77;5.65;;;6.30;99.90;;;;;;5036343;28;20211;-80
2021/03/22 00:29:13;;;;;;;19.70;4.97;;;6.30;99.90;;;;;;5053140;28;20645;-80
2021/03/22 00:31:41;;;;;;;19.20;5.25;;;6.30;99.90;;;;;;5019272;28;20475;-80
2021/03/22 00:34:07;;;;;;;23.03;6.57;;;6.20;99.90;;;;;;5053334;28;20176;-79
2021/03/22 00:36:40;;;;;;;14.75;4.72;;;6.20;99.90;;;;;;5053053;28;20415;-80
2021/03/22 00:39:08;;;;;;;20.10;5.80;;;6.20;99.90;;;;;;5036228;28;20164;-80
2021/03/22 00:41:42;;;;;;;24.80;5.27;;;6.30;99.90;;;;;;5053019;28;20177;-79
2021/03/22 00:44:10;;;;;;;16.92;6.07;;;6.20;99.90;;;;;;5019373;28;20563;-80
2021/03/22 00:46:39;;;;;;;16.77;5.20;;;6.20;99.90;;;;;;5035647;28;20779;-80
2021/03/22 00:49:06;;;;;;;22.50;5.03;;;6.20;99.90;;;;;;5052886;28;20265;-80
2021/03/22 00:51:38;;;;;;;17.65;5.50;;;6.20;99.90;;;;;;5035769;28;20200;-80
2021/03/22 00:54:11;;;;;;;14.02;4.45;;;6.20;99.90;;;;;;5055402;28;20625;-80
2021/03/22 00:56:44;;;;;;;15.85;5.05;;;6.20;99.90;;;;;;5039731;28;20176;-80
2021/03/22 00:59:18;;;;;;;11.77;5.20;;;6.20;99.90;;;;;;5022471;28;20178;-80
2021/03/22 01:01:46;;;;;;;16.98;4.82;;;6.10;99.90;;;;;;5056492;28;20179;-80
2021/03/22 01:04:17;;;;;;;20.17;6.20;;;6.10;99.90;;;;;;5039330;28;20571;-80
2021/03/22 01:06:45;;;;;;;18.80;4.90;;;6.10;99.90;;;;;;5038889;28;20318;-80
2021/03/22 01:09:16;;;;;;;14.68;4.38;;;6.00;99.90;;;;;;5056258;28;20933;-80
2021/03/22 01:11:47;;;;;;;16.48;5.00;;;6.00;99.90;;;;;;5022276;28;20319;-80
2021/03/22 01:14:13;;;;;;;18.55;4.68;;;6.00;99.90;;;;;;5056124;28;20195;-80
2021/03/22 01:16:44;;;;;;;19.52;4.95;;;6.00;99.90;;;;;;5056568;28;20180;-80
2021/03/22 01:19:20;;;;;;;16.52;4.45;;;6.00;99.90;;;;;;5039067;28;20204;-80
2021/03/22 01:21:50;;;;;;;13.00;4.95;;;5.90;99.90;;;;;;5038462;28;20249;-79
2021/03/22 01:24:20;;;;;;;11.23;4.25;;;6.00;99.90;;;;;;5038570;28;20661;-80
2021/03/22 01:26:51;;;;;;;14.15;4.38;;;5.90;99.90;;;;;;5038634;28;20183;-79
2021/03/22 01:29:28;;;;;;;19.10;4.22;;;5.90;99.90;;;;;;5038896;28;20251;-79
2021/03/22 01:32:01;;;;;;;21.15;5.05;;;5.90;99.90;;;;;;5037943;28;20214;-79
2021/03/22 01:34:30;;;;;;;15.07;4.50;;;5.90;99.90;;;;;;5038607;28;20605;-80
2021/03/22 01:36:59;;;;;;;18.75;4.82;;;5.90;99.90;;;;;;5055297;28;20562;-80
2021/03/22 01:39:36;;;;;;;23.00;4.55;;;5.90;99.90;;;;;;5054937;28;20520;-79
2021/03/22 01:42:29;;;;;;;11.38;4.65;;;6.00;99.90;;;;;;5022195;28;20228;-80
2021/03/22 01:45:08;;;;;;;16.02;5.40;;;5.90;99.90;;;;;;5054709;28;20308;-80
2021/03/22 01:47:39;;;;;;;17.98;5.53;;;5.90;99.90;;;;;;5055552;28;20208;-80
2021/03/22 01:50:17;;;;;;;22.52;6.38;;;5.90;99.90;;;;;;5055892;28;20195;-80
2021/03/22 01:52:50;;;;;;;18.33;6.10;;;5.90;99.90;;;;;;5054523;28;20519;-80
2021/03/22 01:55:21;;;;;;;16.75;5.80;;;5.90;99.90;;;;;;5037625;28;20502;-79
2021/03/22 01:57:50;;;;;;;15.70;4.90;;;5.90;99.90;;;;;;5038158;28;20219;-80
2021/03/22 02:00:35;;;;;;;16.30;5.30;;;5.90;99.90;;;;;;5054985;28;20717;-80
2021/03/22 02:03:21;;;;;;;40.05;6.25;;;5.90;99.90;;;;;;5055308;28;20192;-79
2021/03/22 02:05:50;;;;;;;23.02;6.82;;;5.90;99.90;;;;;;5053656;28;20199;-80
2021/03/22 02:08:27;;;;;;;16.75;6.50;;;5.90;99.90;;;;;;5038315;28;20198;-80
2021/03/22 02:10:53;;;;;;;20.08;8.25;;;6.10;99.90;;;;;;5055501;28;20192;-80
2021/03/22 02:13:31;;;;;;;21.63;7.28;;;6.10;99.90;;;;;;5055037;28;20204;-79
2021/03/22 02:16:11;;;;;;;25.63;7.45;;;6.00;99.90;;;;;;5055141;28;20251;-80
2021/03/22 02:19:01;;;;;;;15.13;6.80;;;6.00;99.90;;;;;;5055149;28;20169;-80
2021/03/22 02:22:12;;;;;;;15.00;6.50;;;6.00;99.90;;;;;;5021262;28;20606;-80
2021/03/22 02:24:58;;;;;;;15.68;6.70;;;6.00;99.90;;;;;;5022824;28;20206;-80
2021/03/22 02:27:54;;;;;;;16.33;6.18;;;5.90;99.90;;;;;;5020841;28;20188;-80
2021/03/22 02:30:50;;;;;;;19.58;7.20;;;5.90;99.90;;;;;;5037313;28;20616;-80
2021/03/22 02:33:46;;;;;;;20.42;8.32;;;5.90;99.90;;;;;;5054635;28;20200;-80
2021/03/22 02:36:34;;;;;;;25.00;6.90;;;5.90;99.90;;;;;;5020995;28;20196;-80
2021/03/22 02:39:11;;;;;;;17.10;9.15;;;5.90;99.90;;;;;;5024776;28;20190;-80
2021/03/22 02:41:58;;;;;;;23.65;7.53;;;5.90;99.90;;;;;;5037433;28;20215;-79
2021/03/22 02:44:32;;;;;;;21.20;7.90;;;5.80;99.90;;;;;;5054418;28;20258;-80
2021/03/22 02:47:11;;;;;;;19.60;7.88;;;5.80;99.90;;;;;;5037921;28;20168;-80
2021/03/22 02:49:44;;;;;;;28.30;9.30;;;5.80;99.90;;;;;;5037327;28;20183;-80
2021/03/22 02:52:36;;;;;;;18.75;8.00;;;5.80;99.90;;;;;;5036917;28;20196;-80
2021/03/22 02:55:31;;;;;;;23.65;7.97;;;5.70;99.90;;;;;;5054069;28;20677;-80
2021/03/22 02:58:14;;;;;;;19.92;7.00;;;5.70;99.90;;;;;;5054448;28;20171;-80
2021/03/22 03:01:01;;;;;;;28.92;7.72;;;5.60;99.90;;;;;;5037053;28;20188;-80
2021/03/22 03:03:33;;;;;;;24.20;6.30;;;5.60;99.90;;;;;;5037163;28;20180;-79
2021/03/22 03:06:07;;;;;;;23.17;7.40;;;5.60;99.90;;;;;;5037394;28;20514;-80
2021/03/22 03:08:43;;;;;;;22.70;6.88;;;5.60;99.90;;;;;;5037117;28;20181;-80
2021/03/22 03:11:14;;;;;;;21.88;6.15;;;5.50;99.90;;;;;;5054092;28;20637;-80
2021/03/22 03:13:43;;;;;;;14.75;5.35;;;5.50;99.90;;;;;;5053604;28;20176;-80
2021/03/22 03:16:13;;;;;;;20.98;5.18;;;5.50;99.90;;;;;;5036531;28;20267;-80
2021/03/22 03:18:46;;;;;;;20.30;6.38;;;5.40;99.90;;;;;;5054028;28;20168;-80
2021/03/22 03:21:19;;;;;;;15.07;6.22;;;5.40;99.90;;;;;;5036789;28;20165;-80
2021/03/22 03:23:45;;;;;;;19.10;5.70;;;5.40;99.90;;;;;;5036486;28;20188;-80
2021/03/22 03:26:19;;;;;;;13.73;5.35;;;5.30;99.90;;;;;;5035965;28;20187;-80
2021/03/22 03:28:54;;;;;;;13.98;5.70;;;5.40;99.90;;;;;;5053833;28;20263;-80
2021/03/22 03:31:22;;;;;;;22.52;6.05;;;5.30;99.90;;;;;;5036862;28;20196;-80
2021/03/22 03:33:50;;;;;;;18.53;5.23;;;5.40;99.90;;;;;;5054107;28;20577;-79
2021/03/22 03:36:18;;;;;;;16.23;5.85;;;5.40;99.90;;;;;;5053151;28;20445;-80
2021/03/22 03:38:46;;;;;;;13.95;6.25;;;5.40;99.90;;;;;;5036187;28;20193;-80
2021/03/22 03:41:12;;;;;;;20.45;6.30;;;5.40;99.90;;;;;;5020066;28;20176;-80
2021/03/22 03:43:40;;;;;;;18.88;6.18;;;5.40;99.90;;;;;;5053520;28;20246;-80
2021/03/22 03:46:11;;;;;;;23.23;7.32;;;5.40;99.90;;;;;;5019754;28;20192;-80
2021/03/22 03:48:41;;;;;;;21.90;6.60;;;5.40;99.90;;;;;;5053430;28;20172;-80
2021/03/22 03:51:07;;;;;;;20.65;5.78;;;5.30;99.90;;;;;;5053468;28;20683;-80
2021/03/22 03:53:38;;;;;;;19.23;5.43;;;5.30;99.90;;;;;;5053414;28;20191;-80
2021/03/22 03:56:07;;;;;;;22.52;6.90;;;5.40;99.90;;;;;;5053383;28;20652;-80
2021/03/22 03:58:37;;;;;;;15.07;5.57;;;5.40;99.90;;;;;;5020118;28;20168;-79
2021/03/22 04:01:08;;;;;;;16.20;5.90;;;5.40;99.90;;;;;;5053394;28;20164;-80
2021/03/22 04:03:41;;;;;;;11.77;3.83;;;5.40;99.90;;;;;;5035852;28;20271;-80
2021/03/22 04:06:13;;;;;;;12.70;4.30;;;5.50;99.90;;;;;;5052626;28;20181;-79
2021/03/22 04:08:48;;;;;;;12.98;5.00;;;5.40;99.90;;;;;;5034348;28;20271;-79
2021/03/22 04:11:28;;;;;;;13.98;5.00;;;5.40;99.90;;;;;;5033714;28;20181;-80
2021/03/22 04:13:59;;;;;;;22.13;4.97;;;5.30;99.90;;;;;;5034222;28;20605;-80
2021/03/22 04:16:35;;;;;;;16.08;5.68;;;5.30;99.90;;;;;;5053154;28;20539;-79
2021/03/22 04:19:04;;;;;;;13.45;5.55;;;5.30;99.90;;;;;;5035811;28;20169;-80
2021/03/22 04:21:35;;;;;;;18.35;4.85;;;5.20;99.90;;;;;;5036464;28;20192;-80
2021/03/22 04:24:03;;;;;;;15.48;5.28;;;5.20;99.90;;;;;;5053435;28;20672;-79
2021/03/22 04:26:34;;;;;;;10.27;4.30;;;5.30;99.90;;;;;;5042522;28;20263;-80
2021/03/22 04:29:03;;;;;;;12.93;5.03;;;5.20;99.90;;;;;;5038722;28;20225;-80
2021/03/22 04:31:31;;;;;;;17.77;6.72;;;5.30;99.90;;;;;;5056468;28;20300;-80
2021/03/22 04:34:03;;;;;;;12.25;4.95;;;5.30;99.90;;;;;;5040121;28;20184;-80
2021/03/22 04:36:40;;;;;;;15.45;4.90;;;5.40;99.90;;;;;;5039741;28;20585;-80
2021/03/22 04:39:09;;;;;;;14.57;6.35;;;5.40;99.90;;;;;;5057053;28;20751;-80
2021/03/22 04:41:43;;;;;;;17.45;7.90;;;5.40;99.90;;;;;;5056779;28;20287;-80
2021/03/22 04:44:14;;;;;;;16.60;5.50;;;5.30;99.90;;;;;;5056280;28;20646;-80
2021/03/22 04:46:42;;;;;;;13.45;5.40;;;5.30;99.90;;;;;;5057064;28;20192;-80
2021/03/22 04:49:08;;;;;;;18.30;6.03;;;5.20;99.90;;;;;;5056742;28;20519;-80
2021/03/22 04:51:39;;;;;;;21.52;7.15;;;4.80;99.90;;;;;;5055711;28;20212;-79
2021/03/22 04:54:08;;;;;;;17.85;5.75;;;5.20;99.90;;;;;;5038968;28;20200;-80
2021/03/22 04:56:37;;;;;;;20.13;5.95;;;5.10;99.90;;;;;;5023206;28;20175;-80
2021/03/22 04:59:05;;;;;;;25.30;7.20;;;5.10;99.90;;;;;;5039140;28;20192;-80
2021/03/22 05:01:36;;;;;;;15.55;6.75;;;5.30;99.90;;;;;;5056959;28;20172;-80
2021/03/22 05:04:02;;;;;;;15.07;6.70;;;5.20;99.90;;;;;;5056185;28;20680;-80
2021/03/22 05:06:30;;;;;;;20.98;6.47;;;5.20;99.90;;;;;;5039136;28;20447;-80
2021/03/22 05:09:01;;;;;;;17.90;5.80;;;5.40;99.90;;;;;;5055935;28;20192;-80
2021/03/22 05:11:36;;;;;;;14.02;5.55;;;5.20;99.90;;;;;;5056300;28;20197;-79
2021/03/22 05:14:04;;;;;;;18.30;6.63;;;5.10;99.90;;;;;;5056067;28;20275;-80
2021/03/22 05:16:37;;;;;;;20.52;6.35;;;5.10;99.90;;;;;;5039113;28;20318;-79
2021/03/22 05:19:05;;;;;;;13.60;6.07;;;5.00;99.90;;;;;;5055523;28;20179;-79
2021/03/22 05:21:31;;;;;;;22.37;7.50;;;5.00;99.90;;;;;;5055926;28;20180;-79
2021/03/22 05:24:02;;;;;;;23.42;7.70;;;5.00;99.90;;;;;;5056308;28;20446;-79
2021/03/22 05:26:30;;;;;;;20.13;6.72;;;5.00;99.90;;;;;;5056094;28;20332;-79
2021/03/22 05:29:03;;;;;;;24.98;7.18;;;4.90;99.90;;;;;;5056034;28;20199;-80
2021/03/22 05:31:35;;;;;;;25.63;8.95;;;5.00;99.90;;;;;;5055925;28;20206;-80
2021/03/22 05:34:04;;;;;;;20.30;8.82;;;4.90;99.90;;;;;;5056271;28;20165;-80
2021/03/22 05:36:32;;;;;;;17.27;6.80;;;5.00;99.90;;;;;;5054991;28;20180;-79
2021/03/22 05:39:00;;;;;;;20.02;7.55;;;5.00;99.90;;;;;;5054814;28;20191;-80
2021/03/22 05:41:31;;;;;;;21.00;7.85;;;5.00;99.90;;;;;;5055658;28;20208;-79
2021/03/22 05:44:06;;;;;;;24.45;8.10;;;4.90;99.90;;;;;;5055793;28;20254;-79
2021/03/22 05:46:40;;;;;;;15.82;6.95;;;4.90;99.90;;;;;;5055695;28;20187;-80
2021/03/22 05:49:25;;;;;;;18.52;8.50;;;4.90;99.90;;;;;;5055670;28;20633;-80
2021/03/22 05:52:26;;;;;;;28.55;8.93;;;4.90;99.90;;;;;;5055586;28;20629;-80
2021/03/22 05:55:04;;;;;;;17.27;7.03;;;5.10;99.90;;;;;;5045137;28;20203;-80
2021/03/22 05:57:40;;;;;;;16.75;6.88;;;4.90;99.90;;;;;;5055794;28;20191;-79
2021/03/22 06:00:26;;;;;;;23.17;7.20;;;4.90;99.90;;;;;;5055467;28;20650;-80
2021/03/22 06:03:18;;;;;;;21.55;7.72;;;4.90;99.90;;;;;;5034671;28;20177;-79
2021/03/22 06:05:55;;;;;;;14.93;8.48;;;5.00;99.90;;;;;;5018118;28;20170;-79
2021/03/22 06:08:45;;;;;;;25.50;8.57;;;5.20;99.90;;;;;;5035435;28;20185;-79
2021/03/22 06:11:31;;;;;;;20.05;7.30;;;5.10;99.90;;;;;;5017844;28;20175;-79
2021/03/22 06:14:06;;;;;;;21.00;7.95;;;5.10;99.90;;;;;;5004823;28;20534;-79
2021/03/22 06:16:43;;;;;;;20.23;8.02;;;5.10;99.90;;;;;;5002065;28;20211;-80
2021/03/22 06:19:14;;;;;;;22.17;8.32;;;5.10;99.90;;;;;;5035209;28;20171;-80
2021/03/22 06:21:45;;;;;;;26.95;9.80;;;5.10;99.90;;;;;;5035115;28;20668;-80
2021/03/22 06:24:18;;;;;;;14.00;7.30;;;5.20;99.90;;;;;;5046522;28;20257;-80
2021/03/22 06:26:56;;;;;;;31.05;8.68;;;5.00;99.90;;;;;;5055100;28;20164;-80
2021/03/22 06:29:38;;;;;;;21.27;7.85;;;5.20;99.90;;;;;;5054489;28;20218;-80
2021/03/22 06:32:23;;;;;;;16.92;8.43;;;5.00;99.90;;;;;;5037959;28;20207;-80
2021/03/22 06:34:54;;;;;;;19.20;8.23;;;4.90;99.90;;;;;;5037588;28;20226;-80
2021/03/22 06:37:26;;;;;;;30.05;9.23;;;5.00;99.90;;;;;;5054787;28;20268;-80
2021/03/22 06:40:08;;;;;;;28.63;10.60;;;5.00;99.90;;;;;;5054631;28;20251;-80
2021/03/22 06:42:42;;;;;;;23.85;8.82;;;5.00;99.90;;;;;;5021009;28;20184;-80
2021/03/22 06:45:33;;;;;;;25.35;10.02;;;5.10;99.90;;;;;;5020422;28;20231;-80
2021/03/22 06:48:20;;;;;;;13.43;7.47;;;5.10;99.90;;;;;;5037323;28;20264;-81
2021/03/22 06:50:52;;;;;;;25.63;9.02;;;5.20;99.90;;;;;;5053903;28;20204;-80
2021/03/22 06:53:45;;;;;;;23.23;9.32;;;5.30;99.90;;;;;;5037253;28;20211;-80
2021/03/22 06:56:30;;;;;;;23.13;9.77;;;5.40;99.90;;;;;;5054339;28;20172;-80
2021/03/22 06:59:15;;;;;;;24.35;11.32;;;5.30;99.90;;;;;;5054550;28;20222;-80
2021/03/22 07:01:49;;;;;;;31.30;11.27;;;5.30;99.90;;;;;;5037204;28;20270;-80
2021/03/22 07:04:34;;;;;;;27.88;10.77;;;5.20;99.90;;;;;;5054130;28;20177;-80
2021/03/22 07:07:27;;;;;;;22.15;9.73;;;5.30;99.90;;;;;;5053949;28;20177;-80
2021/03/22 07:10:00;;;;;;;21.15;8.85;;;5.30;99.90;;;;;;5037023;28;20196;-79
2021/03/22 07:12:39;;;;;;;21.80;10.02;;;5.40;99.90;;;;;;5053304;28;20203;-80
2021/03/22 07:15:23;;;;;;;20.10;7.97;;;5.40;99.90;;;;;;5054044;28;20188;-80
2021/03/22 07:18:12;;;;;;;24.25;11.13;;;5.50;99.90;;;;;;5036558;28;20161;-80
2021/03/22 07:20:44;;;;;;;24.10;9.70;;;5.70;99.90;;;;;;5031796;28;20184;-80
2021/03/22 07:23:36;;;;;;;25.60;10.98;;;5.50;99.90;;;;;;5037599;28;20234;-80
2021/03/22 07:26:23;;;;;;;27.13;12.48;;;5.60;99.90;;;;;;5036436;28;20175;-80
2021/03/22 07:28:55;;;;;;;24.50;10.82;;;5.70;99.90;;;;;;5036312;28;20176;-82
2021/03/22 07:31:49;;;;;;;24.33;11.20;;;5.70;99.90;;;;;;5053767;28;20180;-83
2021/03/22 07:34:53;;;;;;;27.65;12.00;;;5.70;99.90;;;;;;5020390;28;20172;-83
2021/03/22 07:37:49;;;;;;;40.85;13.50;;;5.70;99.90;;;;;;4992419;28;20236;-80
2021/03/22 07:40:44;;;;;;;16.38;8.70;;;5.80;99.90;;;;;;5034862;28;20169;-79
2021/03/22 07:43:39;;;;;;;20.98;8.20;;;5.70;99.90;;;;;;5034670;28;20188;-80
2021/03/22 07:46:22;;;;;;;20.88;8.02;;;5.80;99.90;;;;;;5052176;28;20183;-80
2021/03/22 07:48:59;;;;;;;24.10;9.68;;;5.90;99.90;;;;;;5015435;28;20216;-83
2021/03/22 07:51:55;;;;;;;16.90;7.85;;;5.90;99.90;;;;;;4998815;28;20256;-81
2021/03/22 07:54:50;;;;;;;21.48;9.27;;;6.00;99.90;;;;;;5027927;28;20204;-81
2021/03/22 07:57:50;;;;;;;17.35;8.00;;;5.90;99.90;;;;;;5051985;28;20173;-78
2021/03/22 08:00:34;;;;;;;15.77;6.68;;;6.00;99.90;;;;;;5052099;28;20177;-79
2021/03/22 08:03:21;;;;;;;16.40;7.78;;;5.90;99.90;;;;;;5052011;28;20545;-79
2021/03/22 08:06:17;;;;;;;16.50;8.48;;;5.90;99.90;;;;;;5054720;28;20208;-79
2021/03/22 08:09:04;;;;;;;10.48;6.05;;;6.00;99.90;;;;;;5039162;28;20183;-82
2021/03/22 08:11:42;;;;;;;13.77;5.72;;;6.00;99.90;;;;;;5038928;28;20181;-80
2021/03/22 08:14:20;;;;;;;13.85;7.00;;;6.00;99.90;;;;;;5022423;28;20173;-79
2021/03/22 08:16:57;;;;;;;13.73;6.95;;;6.10;99.90;;;;;;5055975;28;20269;-79
2021/03/22 08:19:39;;;;;;;12.75;5.93;;;6.10;99.90;;;;;;5039174;28;20168;-79
2021/03/22 08:22:08;;;;;;;12.77;4.72;;;6.00;99.90;;;;;;5038116;28;20255;-80
2021/03/22 08:24:43;;;;;;;9.45;5.57;;;6.10;99.90;;;;;;5038880;28;20215;-79
2021/03/22 08:27:18;;;;;;;17.60;6.90;;;6.10;99.90;;;;;;5056024;28;20211;-79
2021/03/22 08:30:31;;;;;;;24.25;8.02;;;6.30;99.90;;;;;;5038644;28;20168;-79
2021/03/22 08:33:27;;;;;;;19.85;10.55;;;6.60;99.90;;;;;;4993965;28;20196;-81
2021/03/22 08:36:07;;;;;;;16.70;9.30;;;6.80;99.90;;;;;;5055626;28;20177;-79
2021/03/22 08:38:42;;;;;;;19.95;10.55;;;7.00;99.90;;;;;;5055813;28;20239;-80
2021/03/22 08:41:39;;;;;;;24.92;10.93;;;7.10;99.90;;;;;;5038482;28;20239;-80
2021/03/22 08:44:21;;;;;;;16.77;10.05;;;7.30;99.90;;;;;;5038305;28;20237;-80
2021/03/22 08:47:04;;;;;;;25.13;11.02;;;7.50;99.90;;;;;;5037962;28;20169;-80
2021/03/22 08:49:50;;;;;;;23.33;10.90;;;7.60;99.90;;;;;;5055185;28;20204;-80
2021/03/22 08:52:28;;;;;;;20.57;10.20;;;7.70;99.90;;;;;;5021334;28;20212;-81
2021/03/22 08:55:05;;;;;;;17.65;8.23;;;7.70;99.90;;;;;;5038241;28;20431;-79
2021/03/22 08:58:01;;;;;;;15.65;8.88;;;7.70;99.90;;;;;;5038398;28;20474;-80
2021/03/22 09:00:42;;;;;;;11.45;6.85;;;7.70;99.90;;;;;;5037683;28;20181;-81
2021/03/22 09:03:16;;;;;;;20.13;7.85;;;7.50;99.90;;;;;;5054986;28;20231;-81
2021/03/22 09:06:03;;;;;;;10.70;6.32;;;7.60;99.90;;;;;;5037682;28;20184;-81
2021/03/22 09:08:44;;;;;;;14.98;6.50;;;7.50;99.90;;;;;;5037599;28;20193;-81
2021/03/22 09:11:16;;;;;;;10.20;5.90;;;7.40;99.90;;;;;;5037441;28;20170;-81
2021/03/22 09:13:56;;;;;;;11.35;7.53;;;7.40;99.90;;;;;;5054348;28;20195;-80
2021/03/22 09:16:22;;;;;;;9.50;6.10;;;7.40;99.90;;;;;;5055129;28;20168;-81
2021/03/22 09:19:10;;;;;;;10.63;6.97;;;7.50;99.90;;;;;;5021593;28;20283;-80
2021/03/22 09:21:51;;;;;;;11.18;6.18;;;7.60;99.90;;;;;;5036846;28;20439;-81
2021/03/22 09:24:38;;;;;;;8.85;5.55;;;7.70;99.90;;;;;;5054815;28;20656;-80
2021/03/22 09:29:54;;;;;;;9.55;5.50;;;7.80;99.90;;;;;;5054591;28;20263;-80
2021/03/22 09:32:29;;;;;;;10.05;5.18;;;7.80;99.90;;;;;;5036786;28;20198;-79
2021/03/22 09:35:01;;;;;;;9.23;5.40;;;7.70;99.90;;;;;;5037450;28;20170;-80
2021/03/22 09:38:00;;;;;;;6.03;5.27;;;7.70;99.90;;;;;;5053758;28;20610;-79
2021/03/22 09:40:26;;;;;;;8.85;5.70;;;7.80;99.90;;;;;;5054499;28;20411;-80
2021/03/22 09:43:10;;;;;;;7.47;5.88;;;7.90;99.90;;;;;;5036982;28;20204;-80
2021/03/22 09:46:01;;;;;;;10.00;5.53;;;8.00;99.90;;;;;;5054164;28;20235;-79
2021/03/22 09:48:40;;;;;;;9.60;5.93;;;8.10;99.90;;;;;;5036874;28;20514;-79
2021/03/22 09:51:09;;;;;;;9.05;5.90;;;8.10;99.90;;;;;;5054346;28;20409;-79
2021/03/22 09:53:35;;;;;;;4.53;4.13;;;8.00;99.90;;;;;;5036648;28;20535;-80
2021/03/22 09:56:05;;;;;;;6.50;5.90;;;8.10;99.90;;;;;;5054166;28;20416;-80
2021/03/22 09:58:38;;;;;;;7.17;5.90;;;8.20;99.90;;;;;;5053902;28;20847;-80
2021/03/22 10:01:34;;;;;;;6.73;5.17;;;8.10;99.90;;;;;;5053301;28;20557;-80
2021/03/22 10:04:19;;;;;;;4.07;3.77;;;8.10;99.90;;;;;;5036372;28;20422;-79
2021/03/22 10:07:05;;;;;;;4.90;4.30;;;8.30;99.90;;;;;;5053172;28;20412;-79
2021/03/22 10:09:37;;;;;;;4.87;4.10;;;8.40;99.90;;;;;;5053875;28;20464;-80
2021/03/22 10:12:44;;;;;;;4.47;4.10;;;8.40;99.90;;;;;;5036304;28;20494;-79
2021/03/22 10:15:13;;;;;;;6.33;5.73;;;8.30;99.90;;;;;;5009131;28;20984;-78
2021/03/22 10:17:59;;;;;;;9.00;7.03;;;8.40;99.90;;;;;;5019682;28;20502;-80
2021/03/22 10:20:38;;;;;;;6.00;5.30;;;8.90;99.90;;;;;;5053632;28;20885;-79
2021/03/22 10:23:27;;;;;;;5.37;4.97;;;9.10;99.90;;;;;;5050269;28;20973;-79
2021/03/22 10:26:08;;;;;;;7.23;6.20;;;9.00;99.90;;;;;;5052919;28;20504;-79
2021/03/22 10:28:35;;;;;;;5.67;5.20;;;8.90;99.90;;;;;;5052869;28;20440;-79
2021/03/22 10:31:13;;;;;;;6.50;5.90;;;8.80;99.90;;;;;;5036246;28;20421;-79
2021/03/22 10:34:00;;;;;;;5.10;4.80;;;8.70;99.90;;;;;;5053483;28;20447;-79
2021/03/22 10:36:38;;;;;;;5.10;4.70;;;8.80;99.90;;;;;;5036307;28;20441;-80
2021/03/22 10:39:20;;;;;;;5.40;5.10;;;9.20;99.90;;;;;;5036983;28;20427;-80
2021/03/22 10:41:48;;;;;;;6.60;6.00;;;9.50;99.90;;;;;;5053802;28;20422;-80
2021/03/22 10:44:23;;;;;;;6.67;4.80;;;9.60;99.90;;;;;;5035958;28;20474;-80
2021/03/22 10:47:10;;;;;;;6.90;6.27;;;9.70;99.90;;;;;;5019406;28;20746;-80
2021/03/22 10:49:41;;;;;;;7.90;5.57;;;9.80;99.90;;;;;;5019667;28;20462;-78
2021/03/22 10:52:31;;;;;;;7.73;6.63;;;9.80;99.90;;;;;;5035630;28;20562;-80
2021/03/22 10:55:02;;;;;;;6.00;5.50;;;9.70;99.90;;;;;;5052531;28;21132;-80
2021/03/22 10:57:39;;;;;;;7.07;6.47;;;9.80;99.90;;;;;;5035498;28;20476;-80
2021/03/22 11:00:28;;;;;;;10.90;8.23;;;9.80;99.90;;;;;;5051971;28;20486;-80
2021/03/22 11:03:05;;;;;;;9.23;8.20;;;9.80;99.90;;;;;;5019249;28;20454;-81
2021/03/22 11:05:44;;;;;;;9.00;7.63;;;9.90;99.90;;;;;;5035131;28;20450;-80
2021/03/22 11:08:34;;;;;;;10.23;9.20;;;10.10;99.90;;;;;;5022068;28;20430;-81
2021/03/22 11:11:10;;;;;;;6.30;5.70;;;10.20;99.90;;;;;;5032880;28;20755;-81
2021/03/22 11:13:45;;;;;;;5.90;5.50;;;10.20;99.80;;;;;;5022173;28;20461;-80
2021/03/22 11:16:28;;;;;;;5.73;5.33;;;10.30;99.90;;;;;;5018948;28;20739;-80
2021/03/22 11:19:01;;;;;;;7.83;7.03;;;10.30;99.60;;;;;;5018968;28;20442;-80
2021/03/22 11:21:28;;;;;;;6.70;6.10;;;10.20;98.30;;;;;;5052997;28;20402;-80
2021/03/22 11:23:57;;;;;;;7.83;7.17;;;10.10;98.80;;;;;;5052615;28;20904;-80
2021/03/22 11:26:33;;;;;;;6.83;6.13;;;10.00;99.10;;;;;;5035058;28;20926;-80
2021/03/22 11:29:28;;;;;;;6.70;6.20;;;9.90;99.90;;;;;;5052866;28;20401;-80
2021/03/22 11:32:16;;;;;;;6.10;5.70;;;9.90;99.90;;;;;;5052593;28;21087;-80
2021/03/22 11:34:50;;;;;;;7.07;5.27;;;9.60;99.90;;;;;;5052831;28;20408;-80
2021/03/22 11:37:25;;;;;;;5.77;5.20;;;9.50;99.90;;;;;;5034885;28;20420;-80
2021/03/22 11:40:27;;;;;;;4.97;4.67;;;9.40;99.90;;;;;;5052712;28;20417;-80
2021/03/22 11:43:01;;;;;;;5.53;4.70;;;9.30;99.90;;;;;;5035225;28;20436;-80
2021/03/22 11:45:36;;;;;;;5.47;5.07;;;9.20;99.90;;;;;;5033923;28;20481;-80
2021/03/22 11:48:27;;;;;;;7.07;6.00;;;9.20;99.90;;;;;;5039786;28;21123;-80
2021/03/22 11:51:11;;;;;;;5.60;5.20;;;9.20;99.90;;;;;;5052321;28;20412;-80
2021/03/22 11:54:12;;;;;;;7.73;5.20;;;9.20;99.90;;;;;;5048375;28;20537;-79
2021/03/22 11:56:56;;;;;;;6.10;5.60;;;9.10;99.90;;;;;;5020299;28;20408;-80
2021/03/22 11:59:27;;;;;;;7.13;6.43;;;9.00;99.90;;;;;;5036845;28;20401;-79
2021/03/22 12:02:22;;;;;;;6.90;5.67;;;9.00;99.90;;;;;;5036094;28;20435;-80
2021/03/22 12:05:03;;;;;;;6.17;5.57;;;9.00;99.90;;;;;;5053430;28;20884;-79
2021/03/22 12:07:40;;;;;;;6.17;5.53;;;8.90;99.90;;;;;;5035934;28;20441;-79
2021/03/22 12:10:19;;;;;;;5.13;4.80;;;8.90;99.90;;;;;;5035950;28;21106;-77
2021/03/22 12:12:48;;;;;;;5.67;5.13;;;8.90;99.90;;;;;;5052866;28;20468;-77
2021/03/22 12:15:20;;;;;;;6.77;5.90;;;8.80;99.90;;;;;;5020091;28;20408;-77
2021/03/22 12:17:56;;;;;;;6.80;6.20;;;8.90;99.90;;;;;;5053280;28;20429;-77
2021/03/22 12:20:29;;;;;;;7.23;6.53;;;8.90;99.90;;;;;;5053301;28;20718;-78
2021/03/22 12:23:01;;;;;;;6.50;6.00;;;9.00;99.90;;;;;;5035885;28;21046;-78
2021/03/22 12:25:36;;;;;;;7.50;6.80;;;9.00;99.90;;;;;;5036192;28;20423;-77
2021/03/22 12:28:04;;;;;;;6.60;5.87;;;9.20;99.90;;;;;;5004301;28;20434;-77
2021/03/22 12:30:35;;;;;;;9.23;6.50;;;9.30;99.90;;;;;;5035804;28;20448;-77
2021/03/22 12:33:05;;;;;;;11.83;5.70;;;9.30;99.90;;;;;;5033089;28;20465;-78
2021/03/22 12:35:41;;;;;;;8.30;6.00;;;9.30;99.90;;;;;;5056037;28;20398;-78
2021/03/22 12:38:15;;;;;;;8.97;5.40;;;9.40;99.90;;;;;;5072831;28;20410;-79
2021/03/22 12:40:46;;;;;;;6.70;6.10;;;9.40;99.90;;;;;;5032305;28;20809;-79
2021/03/22 12:43:34;;;;;;;7.73;5.53;;;9.40;99.90;;;;;;5026683;28;20512;-78
2021/03/22 12:46:05;;;;;;;6.93;6.33;;;9.40;99.90;;;;;;5036383;28;20461;-78
2021/03/22 12:48:36;;;;;;;11.20;6.70;;;9.40;99.90;;;;;;5035491;28;20454;-79
2021/03/22 12:51:04;;;;;;;7.20;6.50;;;9.30;99.90;;;;;;5039644;28;20749;-79
2021/03/22 12:53:32;;;;;;;7.93;7.03;;;9.40;99.90;;;;;;5038943;28;20480;-79
2021/03/22 12:56:00;;;;;;;6.60;5.90;;;9.30;99.90;;;;;;5039520;28;20468;-80
2021/03/22 12:58:33;;;;;;;5.50;5.10;;;9.30;99.90;;;;;;5029250;28;20451;-78
2021/03/22 13:01:05;;;;;;;6.63;5.97;;;9.20;99.90;;;;;;5033911;28;20429;-79
2021/03/22 13:03:31;;;;;;;6.50;5.80;;;9.10;99.90;;;;;;5055945;28;20436;-78
2021/03/22 13:06:00;;;;;;;7.10;6.20;;;9.10;99.90;;;;;;5065048;28;20459;-79
2021/03/22 13:08:32;;;;;;;6.73;5.90;;;9.10;99.90;;;;;;5076569;28;20508;-78
2021/03/22 13:10:58;;;;;;;6.32;5.82;;;9.00;99.90;;;;;;5042113;28;20422;-79
2021/03/22 13:13:26;;;;;;;7.63;5.60;;;9.00;99.90;;;;;;5032459;28;20211;-79
2021/03/22 13:15:57;;;;;;;11.47;5.93;;;8.90;99.90;;;;;;5056355;28;20890;-79
2021/03/22 13:18:28;;;;;;;7.60;6.80;;;9.00;99.90;;;;;;5054479;28;20439;-78
2021/03/22 13:21:16;;;;;;;7.87;6.33;;;8.90;99.90;;;;;;5039371;28;20424;-79
2021/03/22 13:23:49;;;;;;;6.47;5.87;;;9.00;99.90;;;;;;5056065;28;20473;-78
2021/03/22 13:26:22;;;;;;;9.47;7.17;;;9.00;99.90;;;;;;5049716;28;21038;-78
2021/03/22 13:28:53;;;;;;;6.60;5.63;;;9.00;99.90;;;;;;5005495;28;20784;-79
2021/03/22 13:31:23;;;;;;;7.00;6.40;;;8.90;99.90;;;;;;5048849;28;20457;-79
2021/03/22 13:33:50;;;;;;;13.50;7.87;;;8.90;99.90;;;;;;5060574;28;20451;-78
2021/03/22 13:36:23;;;;;;;6.40;5.87;;;8.90;99.90;;;;;;5055401;28;20420;-77
2021/03/22 13:38:52;;;;;;;6.27;5.77;;;8.90;99.90;;;;;;5055596;28;20422;-78
2021/03/22 13:41:25;;;;;;;7.73;6.27;;;9.00;99.90;;;;;;5055188;28;20840;-78